createdAt,value
2018-03-17T00:00:48.724Z,58.50
2018-03-17T00:03:15.784Z,59.10
2018-03-17T00:05:41.873Z,59.10
2018-03-17T00:08:07.956Z,59.40
2018-03-17T00:10:34.635Z,58.20
2018-03-17T00:13:00.944Z,58.10
2018-03-17T00:15:27.283Z,58.20
2018-03-17T00:17:53.602Z,58.10
2018-03-17T00:20:20.000Z,58.20
2018-03-17T00:22:46.296Z,59.60
2018-03-17T00:25:12.657Z,58.70
2018-03-17T00:27:38.936Z,58.10
2018-03-17T00:30:05.213Z,57.10
2018-03-17T00:32:32.327Z,58.10
2018-03-17T00:34:59.468Z,55.90
2018-03-17T00:37:25.544Z,55.70
2018-03-17T00:39:52.660Z,56.10
2018-03-17T00:42:18.776Z,55.70
2018-03-17T00:44:45.133Z,56.00
2018-03-17T00:47:11.224Z,56.30
2018-03-17T00:49:38.086Z,56.10
2018-03-17T00:52:04.964Z,54.30
2018-03-17T00:54:31.207Z,54.30
2018-03-17T00:56:57.294Z,54.50
2018-03-17T00:59:23.375Z,54.30
2018-03-17T01:01:49.800Z,55.90
2018-03-17T01:04:17.821Z,52.60
2018-03-17T01:06:43.900Z,52.90
2018-03-17T01:09:10.107Z,54.20
2018-03-17T01:11:36.392Z,55.60
2018-03-17T01:14:03.509Z,55.40
2018-03-17T01:16:29.759Z,55.10
2018-03-17T01:18:56.067Z,54.50
2018-03-17T01:21:22.534Z,53.20
2018-03-17T01:23:48.808Z,53.00
2018-03-17T01:26:15.090Z,53.90
2018-03-17T01:28:44.842Z,54.40
2018-03-17T01:31:11.258Z,54.40
2018-03-17T01:33:38.317Z,52.90
2018-03-17T01:36:04.650Z,52.90
2018-03-17T01:38:32.028Z,51.90
2018-03-17T01:40:58.333Z,52.90
2018-03-17T01:43:24.624Z,52.10
2018-03-17T01:45:50.908Z,51.60
2018-03-17T01:48:17.289Z,51.60
2018-03-17T01:50:43.599Z,52.00
2018-03-17T01:53:09.914Z,51.10
2018-03-17T01:55:36.948Z,50.30
2018-03-17T01:58:03.362Z,50.30
2018-03-17T02:00:29.659Z,49.60
2018-03-17T02:02:55.985Z,48.00
2018-03-17T02:05:23.040Z,48.70
2018-03-17T02:07:49.352Z,48.60
2018-03-17T02:10:15.689Z,48.60
2018-03-17T02:12:42.008Z,48.20
2018-03-17T02:15:09.033Z,45.50
2018-03-17T02:17:35.339Z,45.40
2018-03-17T02:20:01.659Z,46.50
2018-03-17T02:22:27.961Z,48.90
2018-03-17T02:24:54.271Z,45.80
2018-03-17T02:27:20.544Z,46.50
2018-03-17T02:29:46.967Z,46.10
2018-03-17T02:32:13.303Z,46.50
2018-03-17T02:34:39.686Z,46.50
2018-03-17T02:37:06.783Z,46.30
2018-03-17T02:39:33.115Z,46.40
2018-03-17T02:41:59.673Z,45.20
2018-03-17T02:44:26.080Z,43.90
2018-03-17T02:46:52.368Z,44.80
2018-03-17T02:49:18.664Z,45.10
2018-03-17T02:51:47.373Z,46.20
2018-03-17T02:54:13.689Z,46.20
2018-03-17T02:56:39.968Z,44.60
2018-03-17T02:59:06.279Z,44.30
2018-03-17T03:01:32.598Z,43.80
2018-03-17T03:03:58.883Z,44.70
2018-03-17T03:06:25.186Z,44.60
2018-03-17T03:08:51.486Z,45.30
2018-03-17T03:11:17.780Z,45.30
2018-03-17T03:13:44.051Z,44.60
2018-03-17T03:16:10.398Z,45.10
2018-03-17T03:18:36.711Z,45.20
2018-03-17T03:21:03.141Z,44.40
2018-03-17T03:23:29.472Z,45.30
2018-03-17T03:25:55.860Z,43.90
2018-03-17T03:28:22.160Z,44.00
2018-03-17T03:30:49.213Z,42.60
2018-03-17T03:33:15.523Z,42.60
2018-03-17T03:35:41.837Z,42.80
2018-03-17T03:38:08.851Z,42.40
2018-03-17T03:40:35.142Z,42.70
2018-03-17T03:43:01.438Z,42.50
2018-03-17T03:45:28.487Z,42.20
2018-03-17T03:47:54.788Z,42.20
2018-03-17T03:50:21.096Z,43.00
2018-03-17T03:52:47.393Z,44.00
2018-03-17T03:55:13.693Z,44.00
2018-03-17T03:57:40.729Z,44.10
2018-03-17T04:00:07.031Z,44.00
2018-03-17T04:02:33.364Z,45.20
2018-03-17T04:04:59.736Z,46.10
2018-03-17T04:07:25.993Z,48.50
2018-03-17T04:09:52.427Z,48.40
2018-03-17T04:12:18.806Z,47.60
2018-03-17T04:14:45.124Z,48.20
2018-03-17T04:17:11.524Z,50.10
2018-03-17T04:19:38.548Z,49.80
2018-03-17T04:22:04.856Z,49.80
2018-03-17T04:24:31.172Z,49.50
2018-03-17T04:26:57.478Z,51.00
2018-03-17T04:29:23.766Z,51.50
2018-03-17T04:31:50.066Z,51.40
2018-03-17T04:34:17.130Z,53.80
2018-03-17T04:36:43.436Z,53.70
2018-03-17T04:39:09.742Z,52.90
2018-03-17T04:41:36.756Z,55.10
2018-03-17T04:44:04.169Z,55.10
2018-03-17T04:46:31.216Z,51.60
2018-03-17T04:48:57.500Z,51.60
2018-03-17T04:51:24.526Z,53.00
2018-03-17T04:53:50.603Z,53.00
2018-03-17T04:56:16.691Z,50.20
2018-03-17T04:58:42.773Z,49.50
2018-03-17T05:01:09.076Z,49.20
2018-03-17T05:03:36.232Z,48.80
2018-03-17T05:06:02.581Z,48.80
2018-03-17T05:08:28.883Z,47.60
2018-03-17T05:10:54.967Z,46.20
2018-03-17T05:13:21.252Z,47.00
2018-03-17T05:15:48.261Z,47.20
2018-03-17T05:18:14.537Z,47.30
2018-03-17T05:20:41.364Z,46.70
2018-03-17T05:23:07.464Z,46.70
2018-03-17T05:25:33.570Z,47.30
2018-03-17T05:28:00.432Z,47.90
2018-03-17T05:30:26.509Z,47.90
2018-03-17T05:32:52.571Z,46.70
2018-03-17T05:35:18.695Z,46.00
2018-03-17T05:37:44.807Z,45.50
2018-03-17T05:40:11.706Z,45.50
2018-03-17T05:42:37.822Z,45.40
2018-03-17T05:45:03.924Z,44.40
2018-03-17T05:47:30.209Z,44.70
2018-03-17T05:49:56.536Z,46.30
2018-03-17T05:52:22.844Z,45.40
2018-03-17T05:54:48.923Z,46.90
2018-03-17T05:57:15.954Z,45.20
2018-03-17T05:59:42.023Z,46.00
2018-03-17T06:02:08.143Z,46.90
2018-03-17T06:04:34.243Z,44.50
2018-03-17T06:07:00.539Z,44.00
2018-03-17T06:09:26.824Z,44.20
2018-03-17T06:11:53.868Z,45.20
2018-03-17T06:14:19.954Z,45.10
2018-03-17T06:16:46.036Z,44.20
2018-03-17T06:19:12.336Z,45.00
2018-03-17T06:21:38.646Z,44.00
2018-03-17T06:24:05.723Z,44.90
2018-03-17T06:26:31.836Z,45.00
2018-03-17T06:28:58.158Z,43.40
2018-03-17T06:31:24.490Z,42.90
2018-03-17T06:33:50.802Z,44.40
2018-03-17T06:36:17.044Z,43.40
2018-03-17T06:38:43.334Z,42.50
2018-03-17T06:41:09.799Z,42.30
2018-03-17T06:43:36.856Z,42.40
2018-03-17T06:46:03.232Z,42.40
2018-03-17T06:48:29.525Z,44.10
2018-03-17T06:50:55.868Z,43.40
2018-03-17T06:53:22.900Z,44.10
2018-03-17T06:55:49.200Z,44.00
2018-03-17T06:58:16.276Z,44.80
2018-03-17T07:00:43.277Z,44.90
2018-03-17T07:03:09.401Z,44.80
2018-03-17T07:05:35.707Z,44.70
2018-03-17T07:08:02.009Z,45.60
2018-03-17T07:10:29.046Z,45.60
2018-03-17T07:12:55.359Z,45.70
2018-03-17T07:15:21.461Z,44.80
2018-03-17T07:17:48.500Z,47.10
2018-03-17T07:20:14.575Z,46.90
2018-03-17T07:22:40.745Z,44.80
2018-03-17T07:25:07.063Z,44.90
2018-03-17T07:27:33.376Z,46.00
2018-03-17T07:29:59.676Z,46.00
2018-03-17T07:32:25.977Z,44.40
2018-03-17T07:34:53.002Z,46.20
2018-03-17T07:37:19.283Z,46.20
2018-03-17T07:39:45.572Z,46.60
2018-03-17T07:42:11.676Z,47.60
2018-03-17T07:44:37.988Z,46.30
2018-03-17T07:47:04.315Z,47.20
2018-03-17T07:49:30.625Z,48.10
2018-03-17T07:51:56.930Z,48.00
2018-03-17T07:54:23.252Z,46.90
2018-03-17T07:56:49.548Z,46.40
2018-03-17T07:59:15.923Z,47.60
2018-03-17T08:01:42.246Z,46.40
2018-03-17T08:04:08.559Z,48.60
2018-03-17T08:06:34.876Z,46.80
2018-03-17T08:09:01.944Z,48.40
2018-03-17T08:11:28.984Z,49.50
2018-03-17T08:13:55.416Z,49.60
2018-03-17T08:16:22.655Z,47.60
2018-03-17T08:18:48.960Z,49.70
2018-03-17T08:21:15.261Z,50.20
2018-03-17T08:23:41.556Z,51.50
2018-03-17T08:26:07.968Z,52.40
2018-03-17T08:28:35.051Z,55.10
2018-03-17T08:31:02.141Z,54.10
2018-03-17T08:33:28.498Z,54.00
2018-03-17T08:35:54.862Z,52.60
2018-03-17T08:38:21.161Z,52.00
2018-03-17T08:40:48.192Z,52.20
2018-03-17T08:43:14.525Z,52.10
2018-03-17T08:45:40.819Z,52.70
2018-03-17T08:48:07.864Z,53.30
2018-03-17T08:50:33.952Z,53.20
2018-03-17T08:53:01.741Z,55.80
2018-03-17T08:55:28.041Z,52.80
2018-03-17T08:57:54.343Z,54.00
2018-03-17T09:00:21.329Z,52.30
2018-03-17T09:02:47.677Z,52.20
2018-03-17T09:05:15.104Z,52.40
2018-03-17T09:07:41.716Z,51.50
2018-03-17T09:10:07.816Z,52.80
2018-03-17T09:12:33.919Z,50.90
2018-03-17T09:15:00.184Z,50.00
2018-03-17T09:17:26.460Z,50.20
2018-03-17T09:19:52.753Z,49.00
2018-03-17T09:22:19.791Z,44.70
2018-03-17T09:24:47.684Z,44.70
2018-03-17T09:27:14.718Z,44.90
2018-03-17T09:29:41.179Z,44.80
2018-03-17T09:32:08.846Z,43.70
2018-03-17T09:34:35.740Z,43.80
2018-03-17T09:37:01.836Z,43.80
2018-03-17T09:39:27.909Z,41.60
2018-03-17T09:41:54.755Z,43.40
2018-03-17T09:44:21.581Z,42.30
2018-03-17T09:46:47.667Z,42.50
2018-03-17T09:49:13.834Z,44.10
2018-03-17T09:51:39.912Z,44.20
2018-03-17T09:54:06.006Z,41.30
2018-03-17T09:56:32.300Z,42.00
2018-03-17T09:58:58.736Z,40.90
2018-03-17T10:01:25.034Z,41.10
2018-03-17T10:03:51.436Z,39.70
2018-03-17T10:06:17.761Z,39.50
2018-03-17T10:08:44.104Z,41.30
2018-03-17T10:11:10.396Z,42.20
2018-03-17T10:13:37.547Z,38.30
2018-03-17T10:16:05.908Z,38.20
2018-03-17T10:18:32.951Z,38.50
2018-03-17T10:21:00.323Z,38.50
2018-03-17T10:23:26.600Z,36.10
2018-03-17T10:25:52.927Z,33.90
2018-03-17T10:28:19.268Z,36.30
2018-03-17T10:30:45.548Z,36.50
2018-03-17T10:33:12.567Z,37.00
2018-03-17T10:35:38.860Z,36.90
2018-03-17T10:38:05.203Z,35.00
2018-03-17T10:40:31.674Z,34.60
2018-03-17T10:42:58.023Z,35.10
2018-03-17T10:45:24.352Z,35.50
2018-03-17T10:47:50.689Z,34.70
2018-03-17T10:50:17.046Z,35.90
2018-03-17T10:52:43.320Z,35.80
2018-03-17T10:55:09.905Z,36.60
2018-03-17T10:57:36.332Z,35.00
2018-03-17T11:00:02.788Z,33.60
2018-03-17T11:02:38.838Z,36.40
2018-03-17T11:05:05.184Z,35.30
2018-03-17T11:07:31.472Z,37.60
2018-03-17T11:09:58.064Z,34.40
2018-03-17T11:12:24.366Z,36.50
2018-03-17T11:14:50.669Z,35.10
2018-03-17T11:17:17.073Z,35.60
2018-03-17T11:19:43.374Z,36.00
2018-03-17T11:22:09.686Z,36.30
2018-03-17T11:24:36.009Z,33.80
2018-03-17T11:27:02.449Z,35.50
2018-03-17T11:29:28.821Z,33.50
2018-03-17T11:31:55.196Z,34.40
2018-03-17T11:34:21.490Z,33.50
2018-03-17T11:36:47.898Z,33.20
2018-03-17T11:39:14.209Z,31.70
2018-03-17T11:41:41.279Z,33.40
2018-03-17T11:44:08.387Z,32.80
2018-03-17T11:46:34.762Z,32.80
2018-03-17T11:49:01.801Z,33.50
2018-03-17T11:51:28.096Z,33.30
2018-03-17T11:53:54.424Z,33.90
2018-03-17T11:56:21.473Z,32.30
2018-03-17T11:58:47.768Z,32.40
2018-03-17T12:01:13.882Z,33.30
2018-03-17T12:03:40.204Z,34.20
2018-03-17T12:06:06.607Z,31.80
2018-03-17T12:08:32.696Z,33.40
2018-03-17T12:11:00.560Z,32.40
2018-03-17T12:13:26.672Z,32.30
2018-03-17T12:15:52.798Z,32.20
2018-03-17T12:18:19.201Z,29.50
2018-03-17T12:20:45.562Z,30.80
2018-03-17T12:23:11.859Z,31.80
2018-03-17T12:25:38.201Z,31.30
2018-03-17T12:28:04.517Z,30.00
2018-03-17T12:30:30.850Z,31.00
2018-03-17T12:32:57.153Z,32.60
2018-03-17T12:35:23.463Z,32.40
2018-03-17T12:37:49.760Z,29.60
2018-03-17T12:40:16.055Z,30.20
2018-03-17T12:42:42.429Z,29.40
2018-03-17T12:45:08.821Z,31.10
2018-03-17T12:47:35.306Z,28.70
2018-03-17T12:50:02.301Z,29.90
2018-03-17T12:52:28.636Z,29.80
2018-03-17T12:54:54.964Z,30.60
2018-03-17T12:57:21.354Z,30.50
2018-03-17T12:59:48.775Z,28.50
2018-03-17T13:02:14.877Z,28.50
2018-03-17T13:04:40.949Z,29.60
2018-03-17T13:07:07.063Z,29.40
2018-03-17T13:09:33.493Z,28.50
2018-03-17T13:12:00.573Z,29.10
2018-03-17T13:14:27.598Z,28.70
2018-03-17T13:16:53.909Z,28.60
2018-03-17T13:19:30.408Z,29.10
2018-03-17T13:21:56.712Z,29.30
2018-03-17T13:24:23.041Z,28.50
2018-03-17T13:27:02.252Z,27.90
2018-03-17T13:29:29.136Z,28.10
2018-03-17T13:31:55.241Z,28.00
2018-03-17T13:34:21.536Z,28.50
2018-03-17T13:37:00.174Z,28.00
2018-03-17T13:39:26.462Z,27.90
2018-03-17T13:41:53.498Z,27.90
2018-03-17T13:44:19.877Z,27.90
2018-03-17T13:46:46.915Z,28.10
2018-03-17T13:49:17.416Z,28.00
2018-03-17T13:51:43.735Z,28.90
2018-03-17T13:54:10.023Z,28.30
2018-03-17T13:56:36.328Z,28.00
2018-03-17T13:59:02.636Z,29.80
2018-03-17T14:01:28.938Z,27.10
2018-03-17T14:03:55.274Z,27.70
2018-03-17T14:06:28.509Z,28.40
2018-03-17T14:08:56.330Z,28.00
2018-03-17T14:11:23.417Z,28.40
2018-03-17T14:13:49.716Z,28.60
2018-03-17T14:16:16.039Z,27.70
2018-03-17T14:18:42.404Z,29.00
2018-03-17T14:21:08.612Z,28.00
2018-03-17T14:23:34.823Z,28.60
2018-03-17T14:26:06.245Z,28.60
2018-03-17T14:28:33.092Z,28.60
2018-03-17T14:30:59.198Z,28.50
2018-03-17T14:33:25.388Z,27.90
2018-03-17T14:35:51.493Z,28.10
2018-03-17T14:38:17.577Z,28.20
2018-03-17T14:40:43.651Z,28.90
2018-03-17T14:43:10.475Z,28.60
2018-03-17T14:45:38.196Z,28.50
2018-03-17T14:48:05.227Z,28.10
2018-03-17T14:50:31.533Z,28.10
2018-03-17T14:52:57.826Z,27.10
2018-03-17T14:55:24.269Z,28.10
2018-03-17T14:57:50.592Z,28.00
2018-03-17T15:00:17.698Z,28.40
2018-03-17T15:02:46.640Z,28.30
2018-03-17T15:05:13.100Z,28.60
2018-03-17T15:07:39.536Z,28.50
2018-03-17T15:10:05.846Z,27.40
2018-03-17T15:12:32.877Z,27.60
2018-03-17T15:14:59.231Z,27.50
2018-03-17T15:17:25.503Z,28.60
2018-03-17T15:19:51.832Z,28.20
2018-03-17T15:22:18.869Z,28.20
2018-03-17T15:24:45.352Z,28.20
2018-03-17T15:27:11.546Z,28.60
2018-03-17T15:29:37.646Z,27.50
2018-03-17T15:32:04.509Z,27.60
2018-03-17T15:34:31.533Z,28.10
2018-03-17T15:36:57.692Z,28.10
2018-03-17T15:39:23.980Z,27.60
2018-03-17T15:41:50.433Z,28.10
2018-03-17T15:44:23.685Z,27.20
2018-03-17T15:46:49.864Z,27.00
2018-03-17T15:49:15.973Z,26.60
2018-03-17T15:51:42.200Z,27.30
2018-03-17T15:54:08.288Z,27.80
2018-03-17T15:56:34.448Z,28.20
2018-03-17T15:59:00.554Z,27.10
2018-03-17T16:01:26.653Z,26.90
2018-03-17T16:03:52.756Z,27.10
2018-03-17T16:06:18.851Z,27.00
2018-03-17T16:08:45.806Z,26.90
2018-03-17T16:11:17.143Z,26.60
2018-03-17T16:13:43.265Z,26.60
2018-03-17T16:16:09.400Z,27.90
2018-03-17T16:18:36.962Z,26.90
2018-03-17T16:21:03.058Z,26.50
2018-03-17T16:23:29.970Z,26.30
2018-03-17T16:25:56.068Z,25.90
2018-03-17T16:28:22.168Z,26.30
2018-03-17T16:30:48.274Z,26.00
2018-03-17T16:33:15.132Z,26.00
2018-03-17T16:35:41.309Z,26.10
2018-03-17T16:38:07.805Z,25.70
2018-03-17T16:40:33.932Z,26.00
2018-03-17T16:43:00.024Z,25.60
2018-03-17T16:45:29.703Z,26.60
2018-03-17T16:47:55.784Z,26.00
2018-03-17T16:50:21.852Z,25.90
2018-03-17T16:52:47.941Z,25.70
2018-03-17T16:55:14.155Z,25.60
2018-03-17T16:57:40.339Z,26.20
2018-03-17T17:00:06.384Z,25.40
2018-03-17T17:02:32.737Z,25.20
2018-03-17T17:04:58.833Z,25.50
2018-03-17T17:07:25.115Z,25.40
2018-03-17T17:09:51.421Z,25.50
2018-03-17T17:12:21.343Z,25.90
2018-03-17T17:14:48.432Z,25.50
2018-03-17T17:17:14.579Z,25.50
2018-03-17T17:19:44.209Z,26.10
2018-03-17T17:22:11.352Z,26.10
2018-03-17T17:24:37.602Z,26.10
2018-03-17T17:27:04.431Z,26.10
2018-03-17T17:29:30.523Z,26.30
2018-03-17T17:31:56.616Z,26.00
2018-03-17T17:34:22.689Z,26.10
2018-03-17T17:36:53.802Z,25.90
2018-03-17T17:39:22.708Z,26.40
2018-03-17T17:41:48.784Z,26.40
2018-03-17T17:44:15.649Z,26.50
2018-03-17T17:46:42.622Z,26.00
2018-03-17T17:49:08.701Z,26.00
2018-03-17T17:51:35.957Z,26.10
2018-03-17T17:54:02.140Z,25.30
2018-03-17T17:56:28.978Z,25.70
2018-03-17T17:58:55.071Z,25.70
2018-03-17T18:01:21.160Z,25.60
2018-03-17T18:03:47.263Z,25.40
2018-03-17T18:06:13.459Z,25.30
2018-03-17T18:08:40.321Z,24.80
2018-03-17T18:11:07.431Z,24.80
2018-03-17T18:13:33.512Z,24.90
2018-03-17T18:16:00.433Z,25.10
2018-03-17T18:18:26.544Z,25.10
2018-03-17T18:20:52.673Z,24.80
2018-03-17T18:23:19.513Z,24.80
2018-03-17T18:25:45.773Z,24.70
2018-03-17T18:28:13.162Z,24.70
2018-03-17T18:30:41.254Z,25.70
2018-03-17T18:33:07.516Z,25.20
2018-03-17T18:35:33.643Z,24.70
2018-03-17T18:37:59.750Z,25.30
2018-03-17T18:40:26.604Z,24.30
2018-03-17T18:42:53.447Z,25.30
2018-03-17T18:45:20.308Z,25.80
2018-03-17T18:47:46.737Z,25.30
2018-03-17T18:50:12.905Z,24.30
2018-03-17T18:52:39.110Z,24.00
2018-03-17T18:55:05.230Z,24.60
2018-03-17T18:57:31.400Z,24.90
2018-03-17T18:59:57.536Z,24.70
2018-03-17T19:02:23.985Z,24.30
2018-03-17T19:04:50.196Z,24.50
2018-03-17T19:07:17.314Z,24.70
2018-03-17T19:09:44.193Z,24.00
2018-03-17T19:12:10.349Z,23.50
2018-03-17T19:14:36.508Z,24.30
2018-03-17T19:17:02.787Z,25.00
2018-03-17T19:19:28.938Z,22.90
2018-03-17T19:21:55.080Z,24.00
2018-03-17T19:24:21.189Z,23.90
2018-03-17T19:26:47.336Z,24.50
2018-03-17T19:29:13.488Z,24.70
2018-03-17T19:31:39.576Z,23.90
2018-03-17T19:34:05.725Z,23.30
2018-03-17T19:36:31.893Z,23.70
2018-03-17T19:38:58.907Z,23.40
2018-03-17T19:41:25.761Z,23.30
2018-03-17T19:43:53.807Z,23.30
2018-03-17T19:46:19.927Z,23.20
2018-03-17T19:48:46.288Z,23.30
2018-03-17T19:51:12.441Z,23.30
2018-03-17T19:53:38.598Z,23.40
2018-03-17T19:56:05.458Z,23.40
2018-03-17T19:58:31.644Z,23.30
2018-03-17T20:00:58.001Z,23.50
2018-03-17T20:03:24.129Z,23.40
2018-03-17T20:05:50.408Z,23.40
2018-03-17T20:08:16.509Z,23.10
2018-03-17T20:10:42.610Z,23.40
2018-03-17T20:13:09.481Z,23.10
2018-03-17T20:15:35.791Z,23.00
2018-03-17T20:18:02.086Z,24.00
2018-03-17T20:20:28.384Z,23.30
2018-03-17T20:22:54.690Z,23.40
2018-03-17T20:25:21.000Z,23.40
2018-03-17T20:27:58.344Z,23.90
2018-03-17T20:30:24.452Z,23.20
2018-03-17T20:32:51.268Z,23.20
2018-03-17T20:35:18.124Z,23.40
2018-03-17T20:37:44.251Z,23.40
2018-03-17T20:40:10.345Z,23.50
2018-03-17T20:42:37.202Z,22.70
2018-03-17T20:45:03.419Z,22.80
2018-03-17T20:47:29.461Z,22.50
2018-03-17T20:49:55.549Z,23.00
2018-03-17T20:52:21.767Z,23.60
2018-03-17T20:54:48.617Z,23.10
2018-03-17T20:57:14.738Z,23.00
2018-03-17T20:59:41.589Z,22.00
2018-03-17T21:02:07.693Z,22.00
2018-03-17T21:04:33.799Z,22.90
2018-03-17T21:06:59.897Z,22.90
2018-03-17T21:09:26.741Z,22.60
2018-03-17T21:11:52.887Z,22.70
2018-03-17T21:14:19.110Z,22.60
2018-03-17T21:16:45.200Z,22.30
2018-03-17T21:19:12.052Z,23.00
2018-03-17T21:21:38.418Z,23.10
2018-03-17T21:24:04.687Z,23.00
2018-03-17T21:26:31.045Z,22.40
2018-03-17T21:28:57.140Z,22.40
2018-03-17T21:31:24.000Z,22.90
2018-03-17T21:33:50.852Z,23.10
2018-03-17T21:36:17.680Z,22.30
2018-03-17T21:38:43.785Z,22.40
2018-03-17T21:41:09.902Z,22.00
2018-03-17T21:43:36.005Z,23.40
2018-03-17T21:46:02.196Z,22.80
2018-03-17T21:48:28.360Z,22.00
2018-03-17T21:50:55.218Z,22.20
2018-03-17T21:53:21.320Z,22.20
2018-03-17T21:55:47.403Z,21.40
2018-03-17T21:58:13.491Z,21.40
2018-03-17T22:00:40.452Z,21.80
2018-03-17T22:03:06.540Z,21.70
2018-03-17T22:05:32.661Z,22.10
2018-03-17T22:07:58.768Z,22.00
2018-03-17T22:10:25.614Z,21.10
2018-03-17T22:12:52.460Z,22.50
2018-03-17T22:15:18.660Z,22.30
2018-03-17T22:17:44.787Z,21.40
2018-03-17T22:20:10.951Z,20.90
2018-03-17T22:22:37.030Z,21.50
2018-03-17T22:25:03.932Z,21.90
2018-03-17T22:27:30.125Z,22.00
2018-03-17T22:29:56.367Z,22.30
2018-03-17T22:32:22.542Z,21.80
2018-03-17T22:34:49.378Z,21.40
2018-03-17T22:37:15.564Z,21.40
2018-03-17T22:39:41.723Z,21.60
2018-03-17T22:42:08.118Z,20.90
2018-03-17T22:44:35.187Z,21.70
2018-03-17T22:47:02.188Z,21.90
2018-03-17T22:49:28.356Z,21.90
2018-03-17T22:51:54.453Z,22.00
2018-03-17T22:54:21.476Z,20.80
2018-03-17T22:56:47.571Z,20.70
2018-03-17T22:59:16.643Z,20.90
2018-03-17T23:01:42.985Z,20.80
2018-03-17T23:04:09.350Z,20.50
2018-03-17T23:06:36.393Z,21.10
2018-03-17T23:09:02.737Z,20.60
2018-03-17T23:11:30.264Z,20.70
2018-03-17T23:13:56.624Z,20.70
2018-03-17T23:16:22.933Z,20.80
2018-03-17T23:18:50.052Z,21.30
2018-03-17T23:21:16.192Z,21.30
2018-03-17T23:23:42.512Z,20.50
2018-03-17T23:26:09.005Z,20.80
2018-03-17T23:28:36.104Z,20.30
2018-03-17T23:31:03.196Z,21.20
2018-03-17T23:33:29.304Z,21.20
2018-03-17T23:35:55.678Z,20.30
2018-03-17T23:38:21.966Z,20.50
2018-03-17T23:40:48.379Z,20.40
2018-03-17T23:43:14.478Z,20.00
2018-03-17T23:45:41.638Z,20.70
2018-03-17T23:48:08.497Z,19.90
2018-03-17T23:50:35.348Z,19.80
2018-03-17T23:53:02.269Z,19.90
2018-03-17T23:55:28.448Z,20.40
2018-03-17T23:57:54.549Z,20.10
